createdAt,value
2017-09-05T00:01:44.336Z,98452.31
2017-09-05T00:04:11.843Z,98456.94
2017-09-05T00:06:39.350Z,98451.63
2017-09-05T00:09:12.486Z,98460.91
2017-09-05T00:11:42.579Z,98463.52
2017-09-05T00:17:30.887Z,98459.07
2017-09-05T00:20:00.839Z,98457.29
2017-09-05T00:22:47.239Z,98462.66
2017-09-05T00:25:14.759Z,98451.23
2017-09-05T00:27:42.260Z,98450.95
2017-09-05T00:30:09.763Z,98455.94
2017-09-05T00:32:37.260Z,98448.81
2017-09-05T00:35:04.769Z,98457.34
2017-09-05T00:37:32.302Z,98456.48
2017-09-05T00:39:59.804Z,98453.34
2017-09-05T00:42:27.348Z,98448.34
2017-09-05T00:44:54.876Z,98447.23
2017-09-05T00:47:22.392Z,98449.95
2017-09-05T00:49:49.944Z,98449.89
2017-09-05T00:52:17.460Z,98448.73
2017-09-05T00:54:44.967Z,98448.20
2017-09-05T00:57:12.467Z,98449.02
2017-09-05T00:59:39.996Z,98448.27
2017-09-05T01:02:07.496Z,98455.13
2017-09-05T01:04:35.002Z,98455.30
2017-09-05T01:07:02.506Z,98450.83
2017-09-05T01:09:30.034Z,98456.25
2017-09-05T01:11:57.554Z,98449.14
2017-09-05T01:14:25.080Z,98450.38
2017-09-05T01:16:52.589Z,98442.80
2017-09-05T01:19:20.096Z,98440.18
2017-09-05T01:21:47.605Z,98445.20
2017-09-05T01:24:15.126Z,98443.63
2017-09-05T01:26:42.646Z,98452.83
2017-09-05T01:29:10.196Z,98447.78
2017-09-05T01:31:37.715Z,98453.78
2017-09-05T01:34:05.247Z,98452.28
2017-09-05T01:36:32.768Z,98444.73
2017-09-05T01:39:00.287Z,98445.83
2017-09-05T01:41:27.808Z,98445.61
2017-09-05T01:43:55.312Z,98451.47
2017-09-05T01:46:22.834Z,98439.69
2017-09-05T01:48:50.370Z,98442.63
2017-09-05T01:51:17.933Z,98436.28
2017-09-05T01:53:45.459Z,98432.14
2017-09-05T01:56:12.987Z,98427.56
2017-09-05T01:58:40.521Z,98426.34
2017-09-05T02:01:08.027Z,98425.64
2017-09-05T02:03:35.542Z,98427.83
2017-09-05T02:06:03.047Z,98423.63
2017-09-05T02:08:30.547Z,98416.75
2017-09-05T02:10:58.066Z,98422.44
2017-09-05T02:13:25.575Z,98421.83
2017-09-05T02:15:53.097Z,98416.61
2017-09-05T02:18:20.607Z,98411.08
2017-09-05T02:20:48.114Z,98409.72
2017-09-05T02:23:15.631Z,98407.29
2017-09-05T02:25:43.147Z,98409.38
2017-09-05T02:28:10.670Z,98404.66
2017-09-05T02:30:38.173Z,98400.17
2017-09-05T02:33:05.672Z,98395.42
2017-09-05T02:35:33.183Z,98395.35
2017-09-05T02:38:00.699Z,98400.56
2017-09-05T02:40:28.222Z,98395.69
2017-09-05T02:42:55.744Z,98399.69
2017-09-05T02:45:23.313Z,98403.59
2017-09-05T02:47:50.827Z,98403.78
2017-09-05T02:50:18.339Z,98400.80
2017-09-05T02:52:46.002Z,98396.30
2017-09-05T02:55:13.525Z,98402.57
2017-09-05T02:57:41.052Z,98401.27
2017-09-05T03:00:08.558Z,98398.94
2017-09-05T03:02:36.082Z,98407.13
2017-09-05T03:05:03.643Z,98411.22
2017-09-05T03:07:31.163Z,98413.39
2017-09-05T03:09:58.675Z,98403.30
2017-09-05T03:12:26.196Z,98404.41
2017-09-05T03:14:53.704Z,98401.14
2017-09-05T03:17:21.219Z,98399.28
2017-09-05T03:19:48.753Z,98394.27
2017-09-05T03:22:16.250Z,98393.98
2017-09-05T03:24:43.754Z,98400.95
2017-09-05T03:27:11.276Z,98390.20
2017-09-05T03:29:38.782Z,98397.02
2017-09-05T03:32:06.297Z,98393.81
2017-09-05T03:34:33.902Z,98391.02
2017-09-05T03:37:01.408Z,98391.25
2017-09-05T03:39:28.925Z,98394.69
2017-09-05T03:41:56.436Z,98393.07
2017-09-05T03:44:23.939Z,98394.34
2017-09-05T03:46:51.462Z,98391.09
2017-09-05T03:49:18.967Z,98396.06
2017-09-05T03:51:46.507Z,98388.31
2017-09-05T03:54:14.018Z,98388.05
2017-09-05T03:56:41.515Z,98390.04
2017-09-05T03:59:09.051Z,98390.36
2017-09-05T04:01:36.559Z,98391.29
2017-09-05T04:04:04.064Z,98392.41
2017-09-05T04:06:31.602Z,98389.77
2017-09-05T04:08:59.117Z,98389.28
2017-09-05T04:11:26.614Z,98395.41
2017-09-05T04:13:54.129Z,98402.25
2017-09-05T04:16:21.633Z,98398.37
2017-09-05T04:18:49.141Z,98396.84
2017-09-05T04:21:16.645Z,98402.55
2017-09-05T04:23:44.170Z,98398.02
2017-09-05T04:26:11.851Z,98403.73
2017-09-05T04:28:39.410Z,98398.79
2017-09-05T04:31:06.919Z,98402.93
2017-09-05T04:33:34.451Z,98402.23
2017-09-05T04:36:01.950Z,98403.94
2017-09-05T04:38:29.475Z,98398.92
2017-09-05T04:40:56.989Z,98398.20
2017-09-05T04:43:24.661Z,98406.90
2017-09-05T04:45:52.164Z,98403.27
2017-09-05T04:48:19.706Z,98407.66
2017-09-05T04:50:47.215Z,98406.37
2017-09-05T04:53:14.723Z,98409.23
2017-09-05T04:55:42.265Z,98402.83
2017-09-05T04:58:09.760Z,98405.58
2017-09-05T05:00:37.283Z,98403.45
2017-09-05T05:03:04.812Z,98402.14
2017-09-05T05:05:32.316Z,98405.36
2017-09-05T05:07:59.853Z,98402.75
2017-09-05T05:10:27.397Z,98409.42
2017-09-05T05:12:54.908Z,98402.44
2017-09-05T05:15:22.418Z,98409.22
2017-09-05T05:17:49.939Z,98412.27
2017-09-05T05:20:17.456Z,98409.20
2017-09-05T05:22:44.962Z,98408.75
2017-09-05T05:25:12.484Z,98406.92
2017-09-05T05:27:39.991Z,98405.52
2017-09-05T05:30:07.505Z,98397.52
2017-09-05T05:32:35.012Z,98394.20
2017-09-05T05:35:02.531Z,98397.81
2017-09-05T05:37:30.046Z,98405.27
2017-09-05T05:39:57.568Z,98398.95
2017-09-05T05:42:25.103Z,98408.35
2017-09-05T05:44:52.629Z,98413.06
2017-09-05T05:47:20.140Z,98406.98
2017-09-05T05:49:47.723Z,98414.27
2017-09-05T05:52:15.284Z,98418.92
2017-09-05T05:54:42.808Z,98415.86
2017-09-05T05:57:10.326Z,98419.52
2017-09-05T05:59:37.847Z,98419.53
2017-09-05T06:02:05.356Z,98421.00
2017-09-05T06:04:32.866Z,98417.88
2017-09-05T06:07:00.375Z,98421.17
2017-09-05T06:09:27.906Z,98423.77
2017-09-05T06:11:55.402Z,98417.33
2017-09-05T06:14:22.903Z,98418.42
2017-09-05T06:16:50.411Z,98414.00
2017-09-05T06:19:17.921Z,98412.13
2017-09-05T06:21:45.459Z,98421.08
2017-09-05T06:24:12.966Z,98416.05
2017-09-05T06:26:40.504Z,98424.78
2017-09-05T06:29:08.020Z,98423.75
2017-09-05T06:31:35.539Z,98423.03
2017-09-05T06:34:03.070Z,98426.45
2017-09-05T06:36:30.593Z,98424.64
2017-09-05T06:38:58.135Z,98431.09
2017-09-05T06:41:25.652Z,98424.69
2017-09-05T06:43:53.156Z,98428.42
2017-09-05T06:46:20.700Z,98435.84
2017-09-05T06:48:48.246Z,98435.30
2017-09-05T06:51:15.769Z,98437.30
2017-09-05T06:53:43.287Z,98438.14
2017-09-05T06:56:10.807Z,98429.03
2017-09-05T06:58:38.332Z,98436.00
2017-09-05T07:01:05.855Z,98432.13
2017-09-05T07:03:33.402Z,98435.53
2017-09-05T07:06:00.926Z,98448.52
2017-09-05T07:08:28.443Z,98436.38
2017-09-05T07:10:55.998Z,98431.80
2017-09-05T07:13:23.518Z,98432.51
2017-09-05T07:15:51.038Z,98432.84
2017-09-05T07:18:18.543Z,98444.91
2017-09-05T07:20:46.073Z,98429.63
2017-09-05T07:23:13.591Z,98439.62
2017-09-05T07:25:41.096Z,98444.44
2017-09-05T07:28:08.615Z,98442.41
2017-09-05T07:30:36.159Z,98443.20
2017-09-05T07:33:03.708Z,98441.39
2017-09-05T07:35:31.247Z,98439.57
2017-09-05T07:37:58.770Z,98440.69
2017-09-05T07:40:26.292Z,98436.83
2017-09-05T07:42:53.819Z,98439.13
2017-09-05T07:45:21.348Z,98439.77
2017-09-05T07:47:48.867Z,98440.08
2017-09-05T07:50:16.391Z,98440.59
2017-09-05T07:52:43.978Z,98441.05
2017-09-05T07:55:11.483Z,98440.53
2017-09-05T07:57:39.158Z,98440.86
2017-09-05T08:00:06.663Z,98439.03
2017-09-05T08:02:34.357Z,98434.34
2017-09-05T08:05:01.898Z,98432.23
2017-09-05T08:07:29.410Z,98436.22
2017-09-05T08:09:56.922Z,98433.23
2017-09-05T08:12:24.458Z,98424.95
2017-09-05T08:14:52.090Z,98426.30
2017-09-05T08:17:19.665Z,98431.53
2017-09-05T08:19:47.183Z,98431.71
2017-09-05T08:22:14.732Z,98431.13
2017-09-05T08:24:42.237Z,98439.94
2017-09-05T08:27:09.735Z,98444.05
2017-09-05T08:29:37.410Z,98446.33
2017-09-05T08:32:04.942Z,98445.24
2017-09-05T08:34:32.448Z,98445.38
2017-09-05T08:36:59.962Z,98442.95
2017-09-05T08:39:27.470Z,98448.21
2017-09-05T08:41:55.019Z,98456.25
2017-09-05T08:44:22.528Z,98455.86
2017-09-05T08:46:50.207Z,98446.45
2017-09-05T08:49:17.767Z,98443.31
2017-09-05T08:51:45.360Z,98454.09
2017-09-05T08:54:12.864Z,98453.76
2017-09-05T08:56:40.696Z,98446.22
2017-09-05T08:59:08.238Z,98456.16
2017-09-05T09:01:35.803Z,98456.33
2017-09-05T09:04:03.924Z,98454.40
2017-09-05T09:06:31.441Z,98441.27
2017-09-05T09:08:58.954Z,98448.95
2017-09-05T09:11:26.467Z,98450.89
2017-09-05T09:13:54.000Z,98444.40
2017-09-05T09:16:21.525Z,98439.83
2017-09-05T09:18:49.032Z,98445.02
2017-09-05T09:21:16.572Z,98446.05
2017-09-05T09:23:44.184Z,98440.11
2017-09-05T09:26:11.724Z,98442.23
2017-09-05T09:28:39.245Z,98434.20
2017-09-05T09:31:06.763Z,98433.53
2017-09-05T09:33:34.273Z,98432.22
2017-09-05T09:36:01.784Z,98439.39
2017-09-05T09:38:29.338Z,98435.13
2017-09-05T09:40:56.934Z,98431.45
2017-09-05T09:43:24.486Z,98436.05
2017-09-05T09:45:52.002Z,98425.33
2017-09-05T09:48:19.516Z,98421.92
2017-09-05T09:50:47.074Z,98430.47
2017-09-05T09:53:14.573Z,98431.02
2017-09-05T09:55:42.080Z,98425.03
2017-09-05T09:58:09.607Z,98424.72
2017-09-05T10:00:37.192Z,98415.58
2017-09-05T10:03:05.062Z,98424.13
2017-09-05T10:05:32.615Z,98409.86
2017-09-05T10:08:00.133Z,98411.08
2017-09-05T10:10:27.663Z,98413.23
2017-09-05T10:12:55.221Z,98407.28
2017-09-05T10:15:22.749Z,98408.47
2017-09-05T10:17:50.270Z,98406.67
2017-09-05T10:20:17.801Z,98403.03
2017-09-05T10:22:45.325Z,98397.48
2017-09-05T10:25:12.839Z,98388.03
2017-09-05T10:27:40.384Z,98389.17
2017-09-05T10:30:07.926Z,98391.60
2017-09-05T10:32:35.442Z,98382.58
2017-09-05T10:35:02.965Z,98390.23
2017-09-05T10:37:30.496Z,98389.68
2017-09-05T10:39:58.039Z,98377.37
2017-09-05T10:42:25.584Z,98380.55
2017-09-05T10:44:53.105Z,98377.09
2017-09-05T10:47:20.608Z,98374.25
2017-09-05T10:49:48.106Z,98376.34
2017-09-05T10:52:15.613Z,98372.30
2017-09-05T10:54:43.146Z,98364.14
2017-09-05T10:57:10.713Z,98361.63
2017-09-05T10:59:38.249Z,98363.13
2017-09-05T11:02:06.011Z,98356.66
2017-09-05T11:04:33.539Z,98364.75
2017-09-05T11:07:01.043Z,98358.17
2017-09-05T11:09:28.548Z,98341.86
2017-09-05T11:11:56.065Z,98343.26
2017-09-05T11:14:23.747Z,98350.69
2017-09-05T11:16:51.270Z,98338.56
2017-09-05T11:19:18.867Z,98336.84
2017-09-05T11:21:46.628Z,98347.20
2017-09-05T11:24:14.145Z,98331.28
2017-09-05T11:26:41.676Z,98329.61
2017-09-05T11:29:09.287Z,98329.70
2017-09-05T11:31:36.820Z,98326.72
2017-09-05T11:34:04.356Z,98319.87
2017-09-05T11:36:31.871Z,98319.71
2017-09-05T11:38:59.387Z,98312.19
2017-09-05T11:41:26.941Z,98312.98
2017-09-05T11:43:54.444Z,98316.59
2017-09-05T11:46:21.976Z,98307.20
2017-09-05T11:48:49.506Z,98304.93
2017-09-05T11:51:17.041Z,98299.63
2017-09-05T11:53:44.565Z,98294.48
2017-09-05T11:56:12.114Z,98290.34
2017-09-05T11:58:39.616Z,98291.95
2017-09-05T12:01:07.133Z,98286.14
2017-09-05T12:03:34.644Z,98278.80
2017-09-05T12:06:02.180Z,98283.63
2017-09-05T12:08:29.712Z,98274.64
2017-09-05T12:10:57.231Z,98276.59
2017-09-05T12:13:24.760Z,98271.20
2017-09-05T12:15:52.279Z,98269.01
2017-09-05T12:18:19.830Z,98274.81
2017-09-05T12:20:47.357Z,98269.42
2017-09-05T12:23:14.883Z,98275.92
2017-09-05T12:25:42.395Z,98272.33
2017-09-05T12:28:10.031Z,98268.38
2017-09-05T12:30:37.553Z,98268.79
2017-09-05T12:33:05.092Z,98269.55
2017-09-05T12:35:32.608Z,98263.48
2017-09-05T12:38:00.173Z,98261.59
2017-09-05T12:40:27.676Z,98265.83
2017-09-05T12:42:55.218Z,98260.28
2017-09-05T12:45:22.734Z,98256.91
2017-09-05T12:47:50.243Z,98260.02
2017-09-05T12:50:17.795Z,98255.47
2017-09-05T12:52:45.315Z,98256.22
2017-09-05T12:55:12.827Z,98247.09
2017-09-05T12:57:40.328Z,98254.63
2017-09-05T13:00:08.059Z,98249.06
2017-09-05T13:02:35.592Z,98248.59
2017-09-05T13:05:03.110Z,98235.26
2017-09-05T13:07:30.627Z,98243.48
2017-09-05T13:09:58.165Z,98238.02
2017-09-05T13:12:25.694Z,98237.48
2017-09-05T13:14:53.197Z,98231.09
2017-09-05T13:17:20.724Z,98230.33
2017-09-05T13:19:48.239Z,98231.20
2017-09-05T13:22:15.748Z,98223.73
2017-09-05T13:24:43.446Z,98218.74
2017-09-05T13:27:10.959Z,98216.83
2017-09-05T13:29:38.665Z,98223.87
2017-09-05T13:32:06.328Z,98220.87
2017-09-05T13:34:33.855Z,98216.59
2017-09-05T13:37:01.502Z,98209.45
2017-09-05T13:39:29.023Z,98211.98
2017-09-05T13:41:56.541Z,98218.84
2017-09-05T13:44:24.077Z,98222.24
2017-09-05T13:46:51.619Z,98214.64
2017-09-05T13:49:20.863Z,98216.87
2017-09-05T13:51:48.632Z,98219.76
2017-09-05T13:54:16.494Z,98212.72
2017-09-05T13:56:44.116Z,98212.13
2017-09-05T13:59:11.636Z,98212.16
2017-09-05T14:01:39.261Z,98219.20
2017-09-05T14:04:06.788Z,98222.22
2017-09-05T14:06:34.316Z,98221.01
2017-09-05T14:09:01.881Z,98227.96
2017-09-05T14:11:29.423Z,98221.25
2017-09-05T14:13:56.968Z,98212.99
2017-09-05T14:16:24.484Z,98208.41
2017-09-05T14:18:52.012Z,98210.08
2017-09-05T14:21:19.538Z,98198.28
2017-09-05T14:23:47.061Z,98208.69
2017-09-05T14:26:14.585Z,98200.30
2017-09-05T14:28:42.108Z,98208.30
2017-09-05T14:31:09.632Z,98207.38
2017-09-05T14:33:37.152Z,98200.34
2017-09-05T14:36:04.655Z,98202.73
2017-09-05T14:38:32.169Z,98207.59
2017-09-05T14:40:59.947Z,98202.05
2017-09-05T14:43:27.669Z,98200.19
2017-09-05T14:45:55.182Z,98202.48
2017-09-05T14:48:22.684Z,98201.04
2017-09-05T14:50:50.226Z,98200.04
2017-09-05T14:53:17.810Z,98195.70
2017-09-05T14:55:45.350Z,98192.31
2017-09-05T14:58:12.913Z,98195.65
2017-09-05T15:00:40.468Z,98191.17
2017-09-05T15:03:08.002Z,98191.57
2017-09-05T15:05:35.530Z,98195.55
2017-09-05T15:08:03.351Z,98186.84
2017-09-05T15:10:30.881Z,98186.59
2017-09-05T15:12:58.469Z,98186.05
2017-09-05T15:15:26.036Z,98190.17
2017-09-05T15:17:53.580Z,98188.61
2017-09-05T15:20:21.209Z,98184.87
2017-09-05T15:22:48.745Z,98189.69
2017-09-05T15:25:16.274Z,98189.05
2017-09-05T15:27:43.793Z,98194.39
2017-09-05T15:30:11.499Z,98187.52
2017-09-05T15:32:39.165Z,98195.19
2017-09-05T15:35:06.695Z,98195.61
2017-09-05T15:37:34.245Z,98197.83
2017-09-05T15:40:01.808Z,98195.95
2017-09-05T15:42:29.331Z,98192.78
2017-09-05T15:44:56.864Z,98194.77
2017-09-05T15:47:24.415Z,98201.08
2017-09-05T15:49:51.920Z,98199.72
2017-09-05T15:52:19.450Z,98205.26
2017-09-05T15:54:46.965Z,98203.88
2017-09-05T15:57:14.505Z,98205.85
2017-09-05T15:59:42.019Z,98197.34
2017-09-05T16:02:09.524Z,98200.50
2017-09-05T16:04:37.067Z,98204.64
2017-09-05T16:07:04.573Z,98204.06
2017-09-05T16:09:32.187Z,98199.20
2017-09-05T16:11:59.771Z,98196.25
2017-09-05T16:14:27.292Z,98202.94
2017-09-05T16:16:54.811Z,98204.27
2017-09-05T16:19:22.311Z,98203.22
2017-09-05T16:21:49.852Z,98202.74
2017-09-05T16:24:17.363Z,98195.88
2017-09-05T16:26:44.878Z,98205.18
2017-09-05T16:29:12.406Z,98201.93
2017-09-05T16:31:39.926Z,98209.45
2017-09-05T16:34:07.459Z,98212.22
2017-09-05T16:36:35.020Z,98207.14
2017-09-05T16:39:02.539Z,98204.25
2017-09-05T16:41:30.062Z,98202.41
2017-09-05T16:43:57.708Z,98199.69
2017-09-05T16:46:25.340Z,98198.86
2017-09-05T16:48:52.946Z,98199.95
2017-09-05T16:51:20.459Z,98195.17
2017-09-05T16:53:47.972Z,98195.59
2017-09-05T16:56:15.523Z,98194.66
2017-09-05T16:58:43.110Z,98195.57
2017-09-05T17:01:10.648Z,98192.37
2017-09-05T17:03:38.189Z,98194.90
2017-09-05T17:06:05.745Z,98200.55
2017-09-05T17:08:33.271Z,98196.66
2017-09-05T17:11:00.772Z,98188.48
2017-09-05T17:13:28.279Z,98198.30
2017-09-05T17:15:55.808Z,98195.97
2017-09-05T17:18:23.354Z,98188.77
2017-09-05T17:20:50.922Z,98195.41
2017-09-05T17:23:18.446Z,98193.20
2017-09-05T17:25:45.984Z,98194.55
2017-09-05T17:28:13.504Z,98191.87
2017-09-05T17:30:41.123Z,98189.58
2017-09-05T17:33:08.656Z,98195.36
2017-09-05T17:35:36.222Z,98196.80
2017-09-05T17:38:03.795Z,98195.99
2017-09-05T17:40:31.354Z,98195.21
2017-09-05T17:42:58.926Z,98194.56
2017-09-05T17:45:26.460Z,98200.91
2017-09-05T17:47:53.968Z,98205.14
2017-09-05T17:50:21.484Z,98200.78
2017-09-05T17:52:49.005Z,98207.28
2017-09-05T17:55:16.520Z,98199.81
2017-09-05T17:57:44.044Z,98203.64
2017-09-05T18:00:11.568Z,98201.83
2017-09-05T18:02:39.083Z,98201.39
2017-09-05T18:05:06.669Z,98206.46
2017-09-05T18:07:34.193Z,98211.67
2017-09-05T18:10:01.748Z,98208.08
2017-09-05T18:12:29.264Z,98222.14
2017-09-05T18:14:56.787Z,98223.95
2017-09-05T18:17:24.302Z,98227.09
2017-09-05T18:19:51.820Z,98219.47
2017-09-05T18:22:19.344Z,98225.37
2017-09-05T18:24:46.868Z,98231.33
2017-09-05T18:27:14.395Z,98228.78
2017-09-05T18:29:41.943Z,98234.61
2017-09-05T18:32:09.479Z,98235.52
2017-09-05T18:34:36.986Z,98234.30
2017-09-05T18:37:04.490Z,98239.47
2017-09-05T18:39:32.023Z,98243.31
2017-09-05T18:41:59.552Z,98247.70
2017-09-05T18:44:27.077Z,98253.05
2017-09-05T18:46:54.605Z,98251.23
2017-09-05T18:49:22.137Z,98250.17
2017-09-05T18:51:49.681Z,98258.20
2017-09-05T18:54:17.244Z,98253.60
2017-09-05T18:56:44.831Z,98257.98
2017-09-05T18:59:12.566Z,98260.09
2017-09-05T19:01:40.102Z,98266.64
2017-09-05T19:04:07.682Z,98263.02
2017-09-05T19:06:35.238Z,98264.59
2017-09-05T19:09:02.853Z,98258.95
2017-09-05T19:11:30.404Z,98261.12
2017-09-05T19:13:57.985Z,98262.52
2017-09-05T19:16:25.529Z,98259.30
2017-09-05T19:18:53.038Z,98261.15
2017-09-05T19:21:21.042Z,98263.55
2017-09-05T19:23:48.551Z,98261.02
2017-09-05T19:26:16.103Z,98257.75
2017-09-05T19:28:43.648Z,98256.44
2017-09-05T19:31:11.202Z,98254.43
2017-09-05T19:33:38.820Z,98251.38
2017-09-05T19:36:06.356Z,98251.21
2017-09-05T19:38:33.863Z,98251.36
2017-09-05T19:41:01.405Z,98249.11
2017-09-05T19:43:28.953Z,98245.31
2017-09-05T19:45:56.537Z,98248.33
2017-09-05T19:48:24.066Z,98251.73
2017-09-05T19:50:51.576Z,98251.65
2017-09-05T19:53:19.114Z,98251.39
2017-09-05T19:55:46.657Z,98251.56
2017-09-05T19:58:14.215Z,98248.50
2017-09-05T20:00:41.767Z,98250.19
2017-09-05T20:03:09.329Z,98251.81
2017-09-05T20:05:36.844Z,98259.55
2017-09-05T20:08:04.381Z,98258.49
2017-09-05T20:10:31.933Z,98255.41
2017-09-05T20:12:59.448Z,98256.63
2017-09-05T20:15:26.993Z,98262.55
2017-09-05T20:17:54.515Z,98263.00
2017-09-05T20:20:22.052Z,98264.89
2017-09-05T20:22:49.607Z,98259.97
2017-09-05T20:25:17.188Z,98257.05
2017-09-05T20:27:44.712Z,98258.92
2017-09-05T20:30:12.277Z,98256.70
2017-09-05T20:32:39.785Z,98262.55
2017-09-05T20:35:07.301Z,98257.89
2017-09-05T20:37:34.820Z,98258.97
2017-09-05T20:40:02.363Z,98259.02
2017-09-05T20:42:29.928Z,98259.76
2017-09-05T20:44:57.567Z,98258.61
2017-09-05T20:47:25.101Z,98260.50
2017-09-05T20:49:52.602Z,98259.38
2017-09-05T20:52:20.125Z,98261.97
2017-09-05T20:54:47.671Z,98256.77
2017-09-05T20:57:15.176Z,98256.94
2017-09-05T20:59:42.749Z,98249.00
2017-09-05T21:02:10.278Z,98250.02
2017-09-05T21:04:37.915Z,98251.95
2017-09-05T21:07:05.450Z,98253.02
2017-09-05T21:09:32.985Z,98249.73
2017-09-05T21:12:01.490Z,98243.33
2017-09-05T21:14:29.040Z,98239.12
2017-09-05T21:16:56.686Z,98244.02
2017-09-05T21:19:24.197Z,98245.66
2017-09-05T21:21:51.703Z,98241.13
2017-09-05T21:24:19.225Z,98240.91
2017-09-05T21:26:46.766Z,98246.63
2017-09-05T21:29:14.276Z,98249.50
2017-09-05T21:31:41.802Z,98244.78
2017-09-05T21:34:09.337Z,98244.72
2017-09-05T21:36:36.996Z,98241.44
2017-09-05T21:39:04.505Z,98237.55
2017-09-05T21:41:32.066Z,98236.94
2017-09-05T21:43:59.590Z,98233.63
2017-09-05T21:46:27.107Z,98234.39
2017-09-05T21:48:54.712Z,98235.12
2017-09-05T21:51:22.252Z,98236.38
2017-09-05T21:53:49.772Z,98237.34
2017-09-05T21:56:17.435Z,98242.03
2017-09-05T21:58:44.947Z,98245.39
2017-09-05T22:01:12.474Z,98234.20
2017-09-05T22:03:40.023Z,98233.41
2017-09-05T22:06:07.585Z,98235.72
2017-09-05T22:08:35.156Z,98237.20
2017-09-05T22:11:02.688Z,98236.70
2017-09-05T22:13:30.212Z,98233.69
2017-09-05T22:15:57.733Z,98226.51
2017-09-05T22:18:30.935Z,98226.49
2017-09-05T22:21:04.013Z,98232.80
2017-09-05T22:23:31.519Z,98227.48
2017-09-05T22:26:04.602Z,98227.83
2017-09-05T22:28:37.745Z,98220.86
2017-09-05T22:31:05.267Z,98226.94
2017-09-05T22:33:32.912Z,98228.52
2017-09-05T22:36:00.449Z,98226.53
2017-09-05T22:38:27.959Z,98226.40
2017-09-05T22:40:55.543Z,98218.88
2017-09-05T22:43:24.114Z,98219.45
2017-09-05T22:45:51.626Z,98218.76
2017-09-05T22:48:19.130Z,98218.53
2017-09-05T22:50:46.637Z,98217.52
2017-09-05T22:53:14.180Z,98213.16
2017-09-05T22:55:41.703Z,98203.44
2017-09-05T22:58:09.218Z,98213.75
2017-09-05T23:00:36.739Z,98214.33
2017-09-05T23:03:04.265Z,98213.81
2017-09-05T23:05:31.826Z,98213.20
2017-09-05T23:07:59.384Z,98217.56
2017-09-05T23:10:26.900Z,98207.47
2017-09-05T23:12:54.416Z,98211.29
2017-09-05T23:15:21.940Z,98212.33
2017-09-05T23:17:49.457Z,98203.14
2017-09-05T23:20:16.996Z,98202.23
2017-09-05T23:22:44.526Z,98204.17
2017-09-05T23:25:12.042Z,98205.66
2017-09-05T23:27:39.553Z,98209.87
2017-09-05T23:30:07.087Z,98208.11
2017-09-05T23:32:34.602Z,98210.58
2017-09-05T23:35:02.113Z,98196.73
2017-09-05T23:37:29.668Z,98207.64
2017-09-05T23:39:57.165Z,98212.02
2017-09-05T23:42:24.686Z,98231.14
2017-09-05T23:44:52.188Z,98238.30
2017-09-05T23:47:19.698Z,98229.52
2017-09-05T23:49:47.243Z,98230.20
2017-09-05T23:52:14.762Z,98226.28
2017-09-05T23:54:42.287Z,98229.61
2017-09-05T23:57:09.784Z,98228.15
2017-09-05T23:59:37.378Z,98226.48
